Time;durP1;ratioP1;P1;durP2;ratioP2;P2;SDS_P1;SDS_P2;PMS_P1;PMS_P2;Temp;Humidity;BMP_temperature;BMP_pressure;BME280_temperature;BME280_humidity;BME280_pressure;Samples;Min_cycle;Max_cycle;Signal;HPM_P1;HPM_P2
2020/12/14 00:00:31;;;;;;;12.20;6.43;;;6.40;99.90;;;;;;4129470;28;20477;-79
2020/12/14 00:02:31;;;;;;;9.93;4.15;;;6.40;99.90;;;;;;4129338;28;20460;-79
2020/12/14 00:04:32;;;;;;;10.63;4.93;;;6.40;99.90;;;;;;4129366;28;20054;-80
2020/12/14 00:06:33;;;;;;;9.90;4.70;;;6.40;99.90;;;;;;4129410;28;20046;-80
2020/12/14 00:08:34;;;;;;;8.57;4.75;;;6.40;99.90;;;;;;4129532;28;20026;-80
2020/12/14 00:10:34;;;;;;;8.88;5.28;;;6.40;99.90;;;;;;4131166;28;20086;-80
2020/12/14 00:12:35;;;;;;;9.88;5.00;;;6.40;99.90;;;;;;4129196;28;20035;-80
2020/12/14 00:14:36;;;;;;;11.13;5.80;;;6.40;99.90;;;;;;4129260;28;20034;-80
2020/12/14 00:16:40;;;;;;;12.27;5.05;;;6.30;99.90;;;;;;4129270;28;20033;-80
2020/12/14 00:18:41;;;;;;;10.82;5.13;;;6.20;99.90;;;;;;4130711;28;20473;-80
2020/12/14 00:20:41;;;;;;;12.70;4.88;;;6.20;99.90;;;;;;4144854;28;20041;-80
2020/12/14 00:22:42;;;;;;;9.25;4.95;;;6.20;99.90;;;;;;4128232;28;20476;-80
2020/12/14 00:24:42;;;;;;;11.02;5.57;;;6.20;99.90;;;;;;4128275;28;20416;-80
2020/12/14 00:26:43;;;;;;;16.42;5.80;;;6.20;99.90;;;;;;4120975;28;20035;-81
2020/12/14 00:28:47;;;;;;;10.63;5.22;;;6.20;99.90;;;;;;4117880;28;20034;-80
2020/12/14 00:30:48;;;;;;;10.15;4.55;;;6.20;99.90;;;;;;4128082;28;20502;-80
2020/12/14 00:32:49;;;;;;;18.23;5.72;;;6.20;99.90;;;;;;4127457;28;20092;-80
2020/12/14 00:34:49;;;;;;;8.38;5.30;;;6.30;99.90;;;;;;4142851;28;20541;-80
2020/12/14 00:36:50;;;;;;;11.52;5.25;;;6.40;99.90;;;;;;4113984;28;20034;-79
2020/12/14 00:38:50;;;;;;;9.57;5.68;;;6.40;99.90;;;;;;4126030;28;20081;-80
2020/12/14 00:40:51;;;;;;;13.55;4.93;;;6.40;99.90;;;;;;4127561;28;20081;-79
2020/12/14 00:42:52;;;;;;;9.05;4.88;;;6.40;99.90;;;;;;4127526;28;20057;-79
2020/12/14 00:44:52;;;;;;;14.32;4.88;;;6.40;99.90;;;;;;4129060;28;20026;-80
2020/12/14 00:46:53;;;;;;;9.60;4.55;;;6.50;99.90;;;;;;4129928;28;20026;-81
2020/12/14 00:48:54;;;;;;;8.80;4.47;;;6.50;99.90;;;;;;4130538;28;20023;-82
2020/12/14 00:50:55;;;;;;;8.65;4.63;;;6.60;99.90;;;;;;4128734;28;20481;-82
2020/12/14 00:52:55;;;;;;;6.85;4.53;;;6.60;99.90;;;;;;4128872;28;20370;-81
2020/12/14 00:54:56;;;;;;;8.05;4.32;;;6.60;99.90;;;;;;4145138;28;20073;-82
2020/12/14 00:56:56;;;;;;;10.93;4.72;;;6.60;99.90;;;;;;4130428;28;20038;-81
2020/12/14 00:58:57;;;;;;;10.18;4.38;;;6.60;99.90;;;;;;4128965;28;20129;-80
2020/12/14 01:00:59;;;;;;;7.43;5.03;;;6.70;99.90;;;;;;4130502;28;20029;-81
2020/12/14 01:02:59;;;;;;;12.82;5.00;;;6.70;99.90;;;;;;4130015;28;20060;-81
2020/12/14 01:05:00;;;;;;;6.40;4.70;;;6.70;99.90;;;;;;4129129;28;20095;-80
2020/12/14 01:07:00;;;;;;;8.27;4.80;;;6.70;99.90;;;;;;4130265;28;20105;-80
2020/12/14 01:09:01;;;;;;;9.35;5.63;;;6.70;99.90;;;;;;4128632;28;20517;-80
2020/12/14 01:11:02;;;;;;;9.90;4.70;;;6.70;99.90;;;;;;4130298;28;20073;-80
2020/12/14 01:13:03;;;;;;;11.63;4.22;;;6.70;99.90;;;;;;4128995;28;20109;-80
2020/12/14 01:15:05;;;;;;;9.88;4.93;;;6.70;99.90;;;;;;4133255;28;20018;-81
2020/12/14 01:17:06;;;;;;;10.50;4.97;;;6.70;99.90;;;;;;4132239;28;20081;-81
2020/12/14 01:19:06;;;;;;;8.73;4.60;;;6.60;99.90;;;;;;4132115;28;20125;-81
2020/12/14 01:21:07;;;;;;;8.93;4.35;;;6.60;99.90;;;;;;4131987;28;20049;-80
2020/12/14 01:23:08;;;;;;;13.25;5.05;;;6.60;99.90;;;;;;4131887;28;20089;-80
2020/12/14 01:25:09;;;;;;;11.38;4.88;;;6.60;99.90;;;;;;4133196;28;20034;-80
2020/12/14 01:27:10;;;;;;;7.85;4.63;;;6.50;99.90;;;;;;4133192;28;20033;-79
2020/12/14 01:29:10;;;;;;;8.73;4.82;;;6.50;99.90;;;;;;4132203;28;20030;-80
2020/12/14 01:31:11;;;;;;;7.57;4.80;;;6.50;99.90;;;;;;4131686;28;20062;-80
2020/12/14 01:33:12;;;;;;;8.65;4.97;;;6.50;99.90;;;;;;4131945;28;20026;-80
2020/12/14 01:35:12;;;;;;;9.57;5.10;;;6.60;99.90;;;;;;4131372;28;20108;-80
2020/12/14 01:37:13;;;;;;;10.88;5.93;;;6.60;99.90;;;;;;4126945;28;20098;-80
2020/12/14 01:39:13;;;;;;;8.65;4.70;;;6.60;99.90;;;;;;4131548;28;20050;-81
2020/12/14 01:41:14;;;;;;;9.65;4.60;;;6.60;99.90;;;;;;4131874;28;20094;-80
2020/12/14 01:43:14;;;;;;;10.65;4.85;;;6.60;99.90;;;;;;4130170;28;20034;-80
2020/12/14 01:45:16;;;;;;;6.18;3.78;;;6.60;99.90;;;;;;4131652;28;20076;-80
2020/12/14 01:47:29;;;;;;;16.35;5.70;;;6.60;99.90;;;;;;4130234;28;20030;-80
2020/12/14 01:49:30;;;;;;;10.60;4.55;;;6.70;99.90;;;;;;4131961;28;20030;-80
2020/12/14 01:51:32;;;;;;;9.82;4.45;;;6.70;99.90;;;;;;4131451;28;20033;-80
2020/12/14 01:53:34;;;;;;;9.07;4.50;;;6.70;99.90;;;;;;4131561;28;20101;-80
2020/12/14 01:55:41;;;;;;;10.05;5.28;;;6.70;99.90;;;;;;4130940;28;20046;-80
2020/12/14 01:57:41;;;;;;;10.23;4.68;;;6.80;99.90;;;;;;4131295;28;20389;-80
2020/12/14 01:59:42;;;;;;;8.23;4.40;;;6.80;99.90;;;;;;4133195;28;20030;-80
2020/12/14 02:01:43;;;;;;;7.05;3.75;;;6.80;99.90;;;;;;4133054;28;20088;-81
2020/12/14 02:03:43;;;;;;;10.52;5.03;;;6.80;99.90;;;;;;4132795;28;20039;-80
2020/12/14 02:05:44;;;;;;;9.07;4.00;;;6.90;99.90;;;;;;4131584;28;20042;-80
2020/12/14 02:07:45;;;;;;;8.38;3.92;;;6.90;99.90;;;;;;4131302;28;20053;-80
2020/12/14 02:09:46;;;;;;;16.73;6.47;;;7.00;99.90;;;;;;4131125;28;20096;-80
2020/12/14 02:11:46;;;;;;;9.18;4.55;;;7.00;99.90;;;;;;4131400;28;20523;-80
2020/12/14 02:13:47;;;;;;;7.20;4.18;;;7.00;99.90;;;;;;4132632;28;20042;-81
2020/12/14 02:15:48;;;;;;;10.07;4.40;;;7.00;99.90;;;;;;4131333;28;20108;-81
2020/12/14 02:17:48;;;;;;;6.22;3.63;;;7.00;99.90;;;;;;4131190;28;20035;-80
2020/12/14 02:19:50;;;;;;;5.45;3.10;;;7.10;99.90;;;;;;4131316;28;20089;-80
2020/12/14 02:21:51;;;;;;;7.88;3.38;;;7.10;99.90;;;;;;4131256;28;20085;-80
2020/12/14 02:23:52;;;;;;;5.38;3.58;;;7.20;99.90;;;;;;4132895;28;20038;-80
2020/12/14 02:25:52;;;;;;;10.55;3.92;;;7.20;99.90;;;;;;4131208;28;20035;-80
2020/12/14 02:27:53;;;;;;;5.13;3.53;;;7.20;99.90;;;;;;4121973;28;20402;-80
2020/12/14 02:29:54;;;;;;;11.07;4.43;;;7.20;99.90;;;;;;4144703;28;20136;-81
2020/12/14 02:31:54;;;;;;;16.42;4.75;;;7.20;99.90;;;;;;4132386;28;20461;-81
2020/12/14 02:33:55;;;;;;;7.78;3.80;;;7.20;99.90;;;;;;4132321;28;20038;-81
2020/12/14 02:35:56;;;;;;;9.07;4.88;;;7.20;99.90;;;;;;4131312;28;20061;-81
2020/12/14 02:37:56;;;;;;;10.82;4.68;;;7.10;99.90;;;;;;4128903;28;20100;-80
2020/12/14 02:39:57;;;;;;;6.47;3.50;;;7.00;99.90;;;;;;4132360;28;20113;-80
2020/12/14 02:41:58;;;;;;;6.60;3.78;;;7.00;99.90;;;;;;4132316;28;20034;-80
2020/12/14 02:43:58;;;;;;;8.90;3.63;;;6.90;99.90;;;;;;4132257;28;20035;-79
2020/12/14 02:45:59;;;;;;;10.05;3.83;;;6.80;99.90;;;;;;4131963;28;20481;-79
2020/12/14 02:48:00;;;;;;;10.27;4.22;;;6.80;99.90;;;;;;4131142;28;20508;-79
2020/12/14 02:50:00;;;;;;;11.23;4.38;;;6.70;99.90;;;;;;4122307;28;20035;-78
2020/12/14 02:52:02;;;;;;;7.53;4.00;;;6.70;99.90;;;;;;4115161;28;20081;-78
2020/12/14 02:54:02;;;;;;;5.53;3.78;;;6.70;99.90;;;;;;4114226;28;20051;-79
2020/12/14 02:56:06;;;;;;;7.68;3.75;;;6.70;99.90;;;;;;4115909;28;20050;-78
2020/12/14 02:58:07;;;;;;;13.00;4.30;;;6.70;99.90;;;;;;4115538;28;20043;-78
2020/12/14 03:00:08;;;;;;;6.00;4.03;;;6.70;99.90;;;;;;4116025;28;20027;-79
2020/12/14 03:02:09;;;;;;;10.68;4.00;;;6.70;99.90;;;;;;4114547;28;20449;-79
2020/12/14 03:04:10;;;;;;;8.90;4.00;;;6.60;99.90;;;;;;4115723;28;20081;-79
2020/12/14 03:06:11;;;;;;;9.85;4.20;;;6.60;99.90;;;;;;4114634;28;20434;-79
2020/12/14 03:08:11;;;;;;;8.38;4.45;;;6.60;99.90;;;;;;4130426;28;20092;-80
2020/12/14 03:10:12;;;;;;;9.00;4.30;;;6.60;99.90;;;;;;4115350;28;20490;-79
2020/12/14 03:12:12;;;;;;;7.75;3.92;;;6.60;99.90;;;;;;4130364;28;20429;-79
2020/12/14 03:14:14;;;;;;;8.18;4.53;;;6.70;99.90;;;;;;4114181;28;20155;-79
2020/12/14 03:16:15;;;;;;;9.20;4.82;;;6.70;99.90;;;;;;4114208;28;20065;-79
2020/12/14 03:18:15;;;;;;;8.02;4.70;;;6.70;99.90;;;;;;4130352;28;20127;-79
2020/12/14 03:20:16;;;;;;;9.73;4.30;;;6.70;99.90;;;;;;4115671;28;20437;-79
2020/12/14 03:22:17;;;;;;;4.28;3.83;;;6.70;99.90;;;;;;4130284;28;20054;-79
2020/12/14 03:24:17;;;;;;;7.82;4.88;;;6.70;99.90;;;;;;4115621;28;20042;-79
2020/12/14 03:26:18;;;;;;;9.93;4.75;;;6.70;99.90;;;;;;4114217;28;20023;-79
2020/12/14 03:28:19;;;;;;;8.38;5.07;;;6.70;99.90;;;;;;4130401;28;20501;-79
2020/12/14 03:30:19;;;;;;;6.85;4.57;;;6.70;99.90;;;;;;4114123;28;20513;-79
2020/12/14 03:32:20;;;;;;;10.57;4.97;;;6.70;99.90;;;;;;4115224;28;20034;-79
2020/12/14 03:34:21;;;;;;;13.48;5.20;;;6.70;99.90;;;;;;4113993;28;20034;-79
2020/12/14 03:36:22;;;;;;;8.85;4.90;;;6.70;99.90;;;;;;4114975;28;20223;-79
2020/12/14 03:38:23;;;;;;;13.75;4.90;;;6.70;99.90;;;;;;4113830;28;20113;-79
2020/12/14 03:40:23;;;;;;;13.20;4.82;;;6.70;99.90;;;;;;4115235;28;20058;-79
2020/12/14 03:42:24;;;;;;;9.48;5.22;;;6.70;99.90;;;;;;4115068;28;20038;-79
2020/12/14 03:44:24;;;;;;;7.55;5.20;;;6.70;99.90;;;;;;4113972;28;20035;-79
2020/12/14 03:46:27;;;;;;;10.75;5.47;;;6.70;99.90;;;;;;4115211;28;20046;-80
2020/12/14 03:48:27;;;;;;;12.27;6.63;;;6.70;99.90;;;;;;4130315;28;20086;-80
2020/12/14 03:50:28;;;;;;;10.80;5.32;;;6.70;99.90;;;;;;4115399;28;20039;-80
2020/12/14 03:52:29;;;;;;;10.85;5.43;;;6.70;99.90;;;;;;4130040;28;20049;-80
2020/12/14 03:54:29;;;;;;;10.32;5.88;;;6.70;99.90;;;;;;4129263;28;20108;-79
2020/12/14 03:56:30;;;;;;;7.43;5.85;;;6.70;99.90;;;;;;4114805;28;20177;-79
2020/12/14 03:58:31;;;;;;;13.75;6.53;;;6.70;99.90;;;;;;4129829;28;20030;-79
2020/12/14 04:00:32;;;;;;;12.75;6.25;;;6.70;99.90;;;;;;4113639;28;20048;-79
2020/12/14 04:02:32;;;;;;;11.43;6.65;;;6.70;99.90;;;;;;4114687;28;20043;-79
2020/12/14 04:04:33;;;;;;;10.13;6.20;;;6.70;99.90;;;;;;4113526;28;20031;-79
2020/12/14 04:06:34;;;;;;;9.77;6.88;;;6.70;99.90;;;;;;4113276;28;20034;-79
2020/12/14 04:08:35;;;;;;;14.23;7.88;;;6.70;99.90;;;;;;4113543;28;20034;-79
2020/12/14 04:10:36;;;;;;;12.65;7.25;;;6.70;99.90;;;;;;4111821;28;20058;-79
2020/12/14 04:12:36;;;;;;;14.88;7.40;;;6.70;99.90;;;;;;4129024;28;20026;-79
2020/12/14 04:14:37;;;;;;;10.85;7.50;;;6.70;99.90;;;;;;4114525;28;20035;-79
2020/12/14 04:16:38;;;;;;;10.27;8.05;;;6.70;99.90;;;;;;4114061;28;20390;-79
2020/12/14 04:18:39;;;;;;;9.65;7.57;;;6.70;99.90;;;;;;4112683;28;20678;-79
2020/12/14 04:20:39;;;;;;;14.73;7.40;;;6.70;99.90;;;;;;4127657;28;20476;-79
2020/12/14 04:22:40;;;;;;;14.20;7.55;;;6.70;99.90;;;;;;4113016;28;20046;-79
2020/12/14 04:24:40;;;;;;;16.50;8.40;;;6.70;99.90;;;;;;4127473;28;20674;-79
2020/12/14 04:26:41;;;;;;;14.82;8.75;;;6.80;99.90;;;;;;4111717;28;20104;-79
2020/12/14 04:28:41;;;;;;;20.98;9.32;;;6.80;99.90;;;;;;4125764;28;20448;-79
2020/12/14 04:30:42;;;;;;;12.55;8.52;;;6.80;99.90;;;;;;4111712;28;20034;-79
2020/12/14 04:32:44;;;;;;;12.23;8.05;;;6.80;99.90;;;;;;4127841;28;20285;-79
2020/12/14 04:34:44;;;;;;;12.77;8.15;;;6.80;99.90;;;;;;4113703;28;20031;-79
2020/12/14 04:36:47;;;;;;;12.50;9.13;;;6.80;99.90;;;;;;4113476;28;20034;-78
2020/12/14 04:38:47;;;;;;;11.73;8.18;;;6.90;99.90;;;;;;4112885;28;20078;-79
2020/12/14 04:40:48;;;;;;;19.55;9.90;;;6.90;99.90;;;;;;4129095;28;20485;-79
2020/12/14 04:42:53;;;;;;;13.23;8.57;;;6.90;99.90;;;;;;4129171;28;20038;-79
2020/12/14 04:44:55;;;;;;;13.98;8.93;;;6.90;99.90;;;;;;4114625;28;20056;-79
2020/12/14 04:46:57;;;;;;;13.88;9.32;;;7.00;99.90;;;;;;4113330;28;20034;-79
2020/12/14 04:48:58;;;;;;;13.38;8.85;;;7.00;99.90;;;;;;4113493;28;20065;-79
2020/12/14 04:50:59;;;;;;;12.63;8.48;;;7.00;99.90;;;;;;4114192;28;20486;-79
2020/12/14 04:53:04;;;;;;;13.77;8.90;;;7.00;99.90;;;;;;4112856;28;20050;-80
2020/12/14 04:55:05;;;;;;;12.02;8.85;;;7.10;99.90;;;;;;4113805;28;20046;-79
2020/12/14 04:57:08;;;;;;;15.02;8.75;;;7.10;99.90;;;;;;4128489;28;20030;-78
2020/12/14 04:59:09;;;;;;;11.20;8.70;;;7.10;99.90;;;;;;4128678;28;20034;-79
2020/12/14 05:01:10;;;;;;;13.15;8.18;;;7.10;99.90;;;;;;4114291;28;20031;-79
2020/12/14 05:03:11;;;;;;;10.85;8.23;;;7.10;99.90;;;;;;4112551;28;20529;-79
2020/12/14 05:05:14;;;;;;;12.27;8.57;;;7.00;99.90;;;;;;4114114;28;20371;-79
2020/12/14 05:07:15;;;;;;;15.10;8.52;;;7.10;99.90;;;;;;4112979;28;20030;-79
2020/12/14 05:09:20;;;;;;;11.48;8.48;;;7.10;99.90;;;;;;4128854;28;20046;-79
2020/12/14 05:11:41;;;;;;;13.35;8.23;;;7.10;99.90;;;;;;4114269;28;20030;-79
2020/12/14 05:13:43;;;;;;;8.77;7.18;;;7.00;99.90;;;;;;4128587;28;20062;-80
2020/12/14 05:15:43;;;;;;;14.23;7.13;;;7.10;99.90;;;;;;4112735;28;20034;-79
2020/12/14 05:17:44;;;;;;;14.35;6.88;;;7.10;99.90;;;;;;4113901;28;20089;-80
2020/12/14 05:19:45;;;;;;;12.57;7.25;;;7.10;99.90;;;;;;4113921;28;20031;-78
2020/12/14 05:21:51;;;;;;;15.32;8.10;;;7.00;99.90;;;;;;4113871;28;20390;-78
2020/12/14 05:24:01;;;;;;;10.57;7.65;;;7.00;99.90;;;;;;4113962;28;20097;-79
2020/12/14 05:26:09;;;;;;;13.23;7.78;;;7.00;99.90;;;;;;4113709;28;20060;-78
2020/12/14 05:28:12;;;;;;;15.40;8.20;;;7.10;99.90;;;;;;4114090;28;20027;-79
2020/12/14 05:30:14;;;;;;;10.65;7.50;;;7.00;99.90;;;;;;4112304;28;20035;-79
2020/12/14 05:32:17;;;;;;;10.18;7.70;;;7.10;99.90;;;;;;4111916;28;20417;-78
2020/12/14 05:34:18;;;;;;;18.23;8.23;;;7.10;99.90;;;;;;4114024;28;20101;-79
2020/12/14 05:36:19;;;;;;;14.35;7.63;;;7.10;99.90;;;;;;4112579;28;20035;-79
2020/12/14 05:38:30;;;;;;;11.38;6.93;;;7.10;99.90;;;;;;4114014;28;20417;-80
2020/12/14 05:40:33;;;;;;;11.15;7.55;;;7.10;99.90;;;;;;4113734;28;20086;-79
2020/12/14 05:42:40;;;;;;;10.13;7.63;;;7.10;99.90;;;;;;4128509;28;20382;-79
2020/12/14 05:44:43;;;;;;;10.80;7.45;;;7.10;99.90;;;;;;4113762;28;20058;-79
2020/12/14 05:46:44;;;;;;;15.48;8.70;;;7.10;99.90;;;;;;4110749;28;20423;-79
2020/12/14 05:48:44;;;;;;;16.17;7.88;;;7.20;99.90;;;;;;4112543;28;20034;-79
2020/12/14 05:50:49;;;;;;;10.70;7.63;;;7.20;99.90;;;;;;4111801;28;20030;-79
2020/12/14 05:52:52;;;;;;;16.42;7.65;;;7.20;99.90;;;;;;4112436;28;20082;-79
2020/12/14 05:54:55;;;;;;;11.25;8.07;;;7.20;99.90;;;;;;4112859;28;20860;-79
2020/12/14 05:56:56;;;;;;;15.85;8.13;;;7.20;99.90;;;;;;4113342;28;20188;-79
2020/12/14 05:59:02;;;;;;;10.52;7.32;;;7.20;99.90;;;;;;4112523;28;20031;-79
2020/12/14 06:01:08;;;;;;;10.93;7.85;;;7.20;99.90;;;;;;4130624;28;20393;-79
2020/12/14 06:03:09;;;;;;;14.10;8.27;;;7.30;99.90;;;;;;4114829;28;20034;-79
2020/12/14 06:05:10;;;;;;;10.82;7.95;;;7.30;99.90;;;;;;4115029;28;20120;-79
2020/12/14 06:07:22;;;;;;;10.25;7.35;;;7.30;99.90;;;;;;4115293;28;20039;-79
2020/12/14 06:09:26;;;;;;;13.13;8.93;;;7.30;99.90;;;;;;4113681;28;20038;-79
2020/12/14 06:11:26;;;;;;;;;;;7.30;99.90;;;;;;4115717;28;20039;-79
2020/12/14 06:13:31;;;;;;;15.30;8.35;;;7.30;99.90;;;;;;4114530;28;19922;-79
2020/12/14 06:15:33;;;;;;;13.32;8.63;;;7.30;99.90;;;;;;4115366;28;20521;-79
2020/12/14 06:17:35;;;;;;;12.80;8.85;;;7.40;99.90;;;;;;4115133;28;20057;-79
2020/12/14 06:19:36;;;;;;;12.98;8.77;;;7.40;99.90;;;;;;4114480;28;20031;-80
2020/12/14 06:21:39;;;;;;;12.75;9.45;;;7.40;99.90;;;;;;4115719;28;20043;-79
2020/12/14 06:23:43;;;;;;;14.57;9.43;;;7.50;99.90;;;;;;4125982;28;20104;-79
2020/12/14 06:25:45;;;;;;;15.73;9.30;;;7.50;99.90;;;;;;4120215;28;20502;-79
2020/12/14 06:27:46;;;;;;;14.73;9.85;;;7.50;99.90;;;;;;4116456;28;20030;-79
2020/12/14 06:29:48;;;;;;;13.02;9.98;;;7.50;99.90;;;;;;4114356;28;20039;-79
2020/12/14 06:31:48;;;;;;;13.73;9.57;;;7.50;99.90;;;;;;4116361;28;20115;-79
2020/12/14 06:33:49;;;;;;;10.98;8.50;;;7.60;99.90;;;;;;4114925;28;20039;-78
2020/12/14 06:35:50;;;;;;;14.93;10.13;;;7.60;99.90;;;;;;4115884;28;20400;-79
2020/12/14 06:37:55;;;;;;;19.25;10.43;;;7.60;99.90;;;;;;4114629;28;20085;-80
2020/12/14 06:39:58;;;;;;;15.10;10.10;;;7.70;99.90;;;;;;4113110;28;20383;-79
2020/12/14 06:42:11;;;;;;;12.93;9.68;;;7.70;99.90;;;;;;4115657;28;20039;-79
2020/12/14 06:44:15;;;;;;;13.95;10.02;;;7.70;99.90;;;;;;4130121;28;20027;-79
2020/12/14 06:46:29;;;;;;;14.13;9.70;;;7.80;99.90;;;;;;4115195;28;20097;-79
2020/12/14 06:48:44;;;;;;;15.80;10.43;;;7.80;99.90;;;;;;4114512;28;20405;-79
2020/12/14 06:50:55;;;;;;;14.40;10.32;;;7.80;99.90;;;;;;4115369;28;20061;-79
2020/12/14 06:53:00;;;;;;;13.63;10.20;;;7.80;99.90;;;;;;4114181;28;20669;-79
2020/12/14 06:55:01;;;;;;;13.65;9.13;;;7.80;99.90;;;;;;4097995;28;20047;-79
2020/12/14 06:57:02;;;;;;;13.13;9.63;;;7.90;99.90;;;;;;4107231;28;20085;-79
2020/12/14 06:59:26;;;;;;;12.82;9.50;;;7.90;99.90;;;;;;4114465;28;20027;-78
2020/12/14 07:01:32;;;;;;;14.45;9.60;;;7.90;99.90;;;;;;4115872;28;20050;-80
2020/12/14 07:03:37;;;;;;;15.23;10.75;;;7.90;99.90;;;;;;4130838;28;20049;-79
2020/12/14 07:05:37;;;;;;;18.20;11.07;;;7.90;99.90;;;;;;4115429;28;20093;-79
2020/12/14 07:07:38;;;;;;;14.27;9.60;;;7.90;99.90;;;;;;4118146;28;20035;-80
2020/12/14 07:09:40;;;;;;;13.25;9.70;;;7.90;99.90;;;;;;4116526;28;20077;-79
2020/12/14 07:11:40;;;;;;;15.48;9.63;;;8.00;99.90;;;;;;4114337;28;20031;-79
2020/12/14 07:13:42;;;;;;;14.68;11.40;;;8.00;99.90;;;;;;4130171;28;20505;-79
2020/12/14 07:15:43;;;;;;;12.95;9.15;;;8.00;99.90;;;;;;4115640;28;20086;-79
2020/12/14 07:17:45;;;;;;;15.93;10.07;;;8.00;99.90;;;;;;4129734;28;20034;-79
2020/12/14 07:19:48;;;;;;;15.35;9.30;;;8.00;99.90;;;;;;4115290;28;20057;-79
2020/12/14 07:21:55;;;;;;;15.88;11.48;;;8.00;99.90;;;;;;4113746;28;20041;-79
2020/12/14 07:23:56;;;;;;;16.15;11.68;;;8.10;99.90;;;;;;4114633;28;20029;-79
2020/12/14 07:25:58;;;;;;;14.23;11.32;;;8.10;99.90;;;;;;4115624;28;20448;-79
2020/12/14 07:27:59;;;;;;;15.63;10.35;;;8.10;99.90;;;;;;4112229;28;20055;-80
2020/12/14 07:30:12;;;;;;;18.77;11.55;;;8.10;99.90;;;;;;4114892;28;20046;-80
2020/12/14 07:32:12;;;;;;;16.13;9.95;;;8.20;99.90;;;;;;4103048;28;20370;-79
2020/12/14 07:34:13;;;;;;;15.07;10.43;;;8.20;99.90;;;;;;4097461;28;20031;-79
2020/12/14 07:36:14;;;;;;;16.27;10.90;;;8.30;99.90;;;;;;4088666;28;20090;-80
2020/12/14 07:38:15;;;;;;;16.05;10.38;;;8.30;99.90;;;;;;4098331;28;20035;-80
2020/12/14 07:40:15;;;;;;;16.13;12.13;;;8.30;99.90;;;;;;4097007;28;20028;-80
2020/12/14 07:42:33;;;;;;;13.95;10.25;;;8.30;99.90;;;;;;4118877;28;20125;-80
2020/12/14 07:44:34;;;;;;;19.30;11.52;;;8.30;99.90;;;;;;4112851;28;20134;-80
2020/12/14 07:46:35;;;;;;;16.88;11.90;;;8.30;99.90;;;;;;4114093;28;20043;-80
2020/12/14 07:48:36;;;;;;;16.17;11.82;;;8.30;99.90;;;;;;4114508;28;20035;-80
2020/12/14 07:50:36;;;;;;;17.45;10.95;;;8.40;99.90;;;;;;4112569;28;20541;-80
2020/12/14 07:52:38;;;;;;;17.52;11.05;;;8.40;99.90;;;;;;4112650;28;20034;-80
2020/12/14 07:54:38;;;;;;;15.65;11.18;;;8.40;99.90;;;;;;4113337;28;20061;-81
2020/12/14 07:56:50;;;;;;;15.23;11.13;;;8.40;99.90;;;;;;4112619;28;20035;-80
2020/12/14 07:58:51;;;;;;;16.52;11.15;;;8.40;99.90;;;;;;4113780;28;20063;-80
2020/12/14 08:00:51;;;;;;;16.90;12.43;;;8.50;99.90;;;;;;4114281;28;20089;-81
2020/12/14 08:03:01;;;;;;;18.63;12.77;;;8.50;99.90;;;;;;4128428;28;20531;-80
2020/12/14 08:05:04;;;;;;;14.38;9.77;;;8.50;99.90;;;;;;4107929;28;20039;-79
2020/12/14 08:07:04;;;;;;;13.60;10.93;;;8.50;99.90;;;;;;4113761;28;20146;-79
2020/12/14 08:09:06;;;;;;;14.98;10.00;;;8.60;99.90;;;;;;4119459;28;20108;-80
2020/12/14 08:11:09;;;;;;;12.48;10.40;;;8.60;99.90;;;;;;4135432;28;20454;-80
2020/12/14 08:13:11;;;;;;;15.07;11.20;;;8.70;99.90;;;;;;4128656;28;20027;-80
2020/12/14 08:15:17;;;;;;;12.30;10.40;;;8.70;99.90;;;;;;4113445;28;20570;-80
2020/12/14 08:17:18;;;;;;;17.40;11.30;;;8.80;99.90;;;;;;4113915;28;20019;-81
2020/12/14 08:19:21;;;;;;;14.63;10.45;;;8.80;99.90;;;;;;4129372;28;20030;-81
2020/12/14 08:21:25;;;;;;;17.02;11.65;;;8.90;99.90;;;;;;4114986;28;20474;-79
2020/12/14 08:23:31;;;;;;;15.10;11.55;;;9.00;99.90;;;;;;4118986;28;20026;-80
2020/12/14 08:25:32;;;;;;;15.07;11.07;;;9.00;99.90;;;;;;4113262;28;20023;-80
2020/12/14 08:27:54;;;;;;;13.13;8.82;;;9.00;99.90;;;;;;4113452;28;20074;-81
2020/12/14 08:30:05;;;;;;;15.52;11.07;;;9.10;99.90;;;;;;4113631;28;20031;-80
2020/12/14 08:32:12;;;;;;;14.93;11.13;;;9.10;99.90;;;;;;4104437;28;20086;-81
2020/12/14 08:34:13;;;;;;;14.02;10.70;;;9.20;99.90;;;;;;4097730;28;20046;-79
2020/12/14 08:36:13;;;;;;;13.27;10.10;;;9.20;99.90;;;;;;4095871;28;20028;-80
2020/12/14 08:38:16;;;;;;;14.65;10.00;;;9.30;99.90;;;;;;4097377;28;20050;-80
2020/12/14 08:40:17;;;;;;;13.05;10.10;;;9.30;99.90;;;;;;4097352;28;20755;-80
2020/12/14 08:42:18;;;;;;;13.30;10.35;;;9.30;99.90;;;;;;4095976;28;20035;-80
2020/12/14 08:44:19;;;;;;;13.05;10.90;;;9.30;99.90;;;;;;4096020;28;20585;-81
2020/12/14 08:46:21;;;;;;;13.77;10.90;;;9.30;99.90;;;;;;4095875;28;20035;-80
2020/12/14 08:48:22;;;;;;;13.38;9.70;;;9.30;99.90;;;;;;4094347;28;20118;-79
2020/12/14 08:50:23;;;;;;;12.00;10.45;;;9.30;99.90;;;;;;4096114;28;20101;-80
2020/12/14 08:52:24;;;;;;;15.80;10.73;;;9.40;99.90;;;;;;4096794;28;20039;-80
2020/12/14 08:54:26;;;;;;;12.20;10.13;;;9.50;99.90;;;;;;4111020;28;20137;-80
2020/12/14 08:56:33;;;;;;;12.18;9.23;;;9.50;99.90;;;;;;4095695;28;20051;-80
2020/12/14 08:58:48;;;;;;;12.32;11.10;;;9.60;99.90;;;;;;4097272;28;20116;-80
2020/12/14 09:00:48;;;;;;;13.38;11.40;;;9.60;99.90;;;;;;4096059;28;20490;-80
2020/12/14 09:02:58;;;;;;;11.63;9.18;;;9.60;99.90;;;;;;4104595;28;20093;-80
2020/12/14 09:05:12;;;;;;;13.23;10.13;;;9.50;99.90;;;;;;4126509;28;20572;-80
2020/12/14 09:07:22;;;;;;;7.90;7.13;;;9.60;99.90;;;;;;4111601;28;20039;-80
2020/12/14 09:09:40;;;;;;;11.68;9.43;;;9.60;99.90;;;;;;4112363;28;20031;-80
2020/12/14 09:11:47;;;;;;;9.82;8.82;;;9.70;99.90;;;;;;4110566;28;20058;-80
2020/12/14 09:13:49;;;;;;;11.68;8.20;;;9.70;99.90;;;;;;4110254;28;20109;-80
2020/12/14 09:15:58;;;;;;;12.52;10.23;;;9.80;99.90;;;;;;4126351;28;20040;-80
2020/12/14 09:18:04;;;;;;;11.13;9.10;;;9.80;99.90;;;;;;4112699;28;20572;-80
2020/12/14 09:20:08;;;;;;;8.32;6.68;;;9.80;99.90;;;;;;4112920;28;20039;-79
2020/12/14 09:22:09;;;;;;;13.32;8.70;;;9.80;99.90;;;;;;4112956;28;20023;-79
2020/12/14 09:24:36;;;;;;;13.07;8.68;;;9.80;99.90;;;;;;4127882;28;20041;-81
2020/12/14 09:26:37;;;;;;;9.35;8.45;;;9.90;99.90;;;;;;4108632;28;20039;-79
2020/12/14 09:28:38;;;;;;;9.70;8.30;;;9.90;99.90;;;;;;4111222;28;20121;-79
2020/12/14 09:30:39;;;;;;;8.70;7.85;;;9.90;99.90;;;;;;4111889;28;20062;-79
2020/12/14 09:32:40;;;;;;;9.52;7.13;;;9.90;99.90;;;;;;4112104;28;20127;-80
2020/12/14 09:34:41;;;;;;;8.80;7.90;;;10.00;99.90;;;;;;4113719;28;20110;-80
2020/12/14 09:36:43;;;;;;;8.00;7.20;;;10.00;99.90;;;;;;4114557;28;20027;-80
2020/12/14 09:38:44;;;;;;;7.68;6.88;;;10.10;99.90;;;;;;4114173;28;20093;-79
2020/12/14 09:40:53;;;;;;;8.90;8.02;;;10.10;99.90;;;;;;4130259;28;20085;-80
2020/12/14 09:42:54;;;;;;;9.13;7.70;;;10.10;99.90;;;;;;4130513;28;20121;-80
2020/12/14 09:44:56;;;;;;;8.65;7.60;;;10.10;99.90;;;;;;4114846;28;20098;-79
2020/12/14 09:47:02;;;;;;;10.68;7.78;;;10.20;99.90;;;;;;4116825;28;20054;-80
2020/12/14 09:49:03;;;;;;;11.30;7.20;;;10.20;99.90;;;;;;4129486;28;20038;-80
2020/12/14 09:51:06;;;;;;;6.60;6.00;;;10.20;99.90;;;;;;4130360;28;20513;-80
2020/12/14 09:53:07;;;;;;;7.90;7.13;;;10.20;99.90;;;;;;4114808;28;20027;-79
2020/12/14 09:55:07;;;;;;;7.60;6.85;;;10.20;99.90;;;;;;4114290;28;20039;-80
2020/12/14 09:57:08;;;;;;;7.07;6.38;;;10.30;99.90;;;;;;4129794;28;20045;-79
2020/12/14 09:59:10;;;;;;;6.97;5.40;;;10.30;99.90;;;;;;4129793;28;20121;-80
2020/12/14 10:01:10;;;;;;;7.38;6.68;;;10.30;99.90;;;;;;4115523;28;20662;-79
2020/12/14 10:03:11;;;;;;;7.15;6.45;;;10.40;99.90;;;;;;4119611;28;20027;-79
2020/12/14 10:05:12;;;;;;;6.72;5.68;;;10.30;99.90;;;;;;4115886;28;20100;-80
2020/12/14 10:07:12;;;;;;;9.48;5.97;;;10.40;99.90;;;;;;4115090;28;20117;-80
2020/12/14 10:09:14;;;;;;;8.27;6.10;;;10.40;99.90;;;;;;4130426;28;20035;-80
2020/12/14 10:11:14;;;;;;;6.68;5.50;;;10.50;99.90;;;;;;4130345;28;20026;-80
2020/12/14 10:13:15;;;;;;;7.20;5.63;;;10.50;99.90;;;;;;4115205;28;20043;-81
2020/12/14 10:15:15;;;;;;;7.90;5.63;;;10.50;99.90;;;;;;4115820;28;20031;-80
2020/12/14 10:17:16;;;;;;;5.38;4.80;;;10.60;99.90;;;;;;4113600;28;20030;-80
2020/12/14 10:19:18;;;;;;;6.40;5.45;;;10.60;99.90;;;;;;4114088;28;20114;-79
2020/12/14 10:21:19;;;;;;;8.98;4.88;;;10.70;99.90;;;;;;4114211;28;20034;-80
2020/12/14 10:23:20;;;;;;;6.07;5.47;;;10.70;99.90;;;;;;4115057;28;20090;-80
2020/12/14 10:25:21;;;;;;;7.05;4.90;;;10.80;99.90;;;;;;4113303;28;20027;-80
2020/12/14 10:27:21;;;;;;;5.50;4.60;;;10.90;99.90;;;;;;4127819;28;20058;-81
2020/12/14 10:29:22;;;;;;;5.57;4.20;;;10.90;99.90;;;;;;4113855;28;20130;-80
2020/12/14 10:31:22;;;;;;;5.15;4.60;;;10.90;99.90;;;;;;4113476;28;20402;-80
2020/12/14 10:33:26;;;;;;;5.38;3.95;;;10.80;99.90;;;;;;4113445;28;20451;-80
2020/12/14 10:35:26;;;;;;;;;;;10.90;99.90;;;;;;4128222;28;20030;-81
2020/12/14 10:37:27;;;;;;;5.55;4.28;;;10.90;99.90;;;;;;4112185;28;20371;-81